INFORMACIÓN METAR y TAF
METAR FOR LEGR
ADDS - METARS form results

(0051 UTC 13 December 2019)
Data provider http://aviationweather.gov/metar/data/
 
METAR text: LEGR 130030Z AUTO 12003KT 360V170 9000 -RA OVC008 09/08 Q1022
Conditions at: LEGR (GRANADA AIRPORT , ES) observed 0030 UTC 13 December 2019
Temperature: 9.0°C (48°F)
Dewpoint: 8.0°C (46°F) [RH = 93%]
Pressure (altimeter): 30.18 inches Hg (1022.0 mb)
Winds: from the ESE (120 degrees) at 3 MPH (3 knots; 1.5 m/s)
Visibility: 6 miles ( 9 km)
Ceiling: 800 feet AGL
Clouds: overcast cloud deck at 800 feet AGL
Weather: -RA  (light rain)

METAR text: LEGR 130000Z AUTO 10006KT 6000 OVC010 09/08 Q1022
Conditions at: LEGR (GRANADA AIRPORT , ES) observed 0000 UTC 13 December 2019
Temperature: 9.0°C (48°F)
Dewpoint: 8.0°C (46°F) [RH = 93%]
Pressure (altimeter): 30.18 inches Hg (1022.0 mb)
Winds: from the E (100 degrees) at 7 MPH (6 knots; 3.1 m/s)
Visibility: 4 miles ( 6 km)
Ceiling: 1000 feet AGL
Clouds: overcast cloud deck at 1000 feet AGL
Weather: no significant weather observed at this time

Forecast for: LEGR (GRANADA AIRPORT , ES)
Text: TAF LEGR 122000Z 1221/1321 VRB02KT CAVOK TX16/1315Z TN02/1309Z
Forecast period: 2100 to 2200 UTC 12 December 2019
Forecast type: FROM: standard forecast or significant change
Winds: variable direction winds at 2 MPH (2 knots; 1.0 m/s)
Visibility: 6 or more miles 10+ km)
Ceiling: unknown
Clouds: missing
Weather: no significant weather forecast for this period
Text: BECMG 1222/1224 30010KT
Forecast period: 2200 UTC 12 December 2019 to 2100 UTC 13 December 2019
Forecast type: BECOMING: Conditions expected to become as follows by 0000 UTC 13 December 2019
Winds: from the WNW (300 degrees) at 12 MPH (10 knots; 5.1 m/s)
Visibility: 6 or more miles 10+ km)
Ceiling: unknown
Clouds: missing
Weather: no significant weather forecast for this period
Text: PROB40
Forecast period: 0000 to 1500 UTC 13 December 2019
Forecast type: TEMPORARY: The following changes expected for less than half the time period
Visibility: 2.49 miles (4.01 km)
Ceiling: 1200 feet AGL
Clouds: broken clouds at 1200 feet AGL
Weather: RA BR  (moderate rain, mist)

MAPA DE AEROPUERTO

INFORMACIÓN DE PISTA
Pista 09 Longitud 9514 ft Ancho 148 ft
Elevación 1842 ft Umbral desplazado 0 ft Rumbo de pista 90
Pista 27 Longitud 9514 ft Ancho 148 ft
Elevación 1860 ft Umbral desplazado 0 ft Rumbo de pista 270

FRECUANCIAS DEL AEROPUERTO
Tipo GND Nombre GND Frecuencia 121.7 MHZ
Tipo TWR Nombre TWR Frecuencia 118.85 MHZ

RADIO AYUDAS DEL AEROPUERTO
Tipo VOR-DME Nombre Granada Frecuencia 113400 KHZ